Terminal Aerodrome Forecast
Issued by NWS

Current Version | Previous Version | Graphics & Text | Print | Product List | Glossary On
Versions: 1 2 3 4 5 6 7 8 9 10 11 12 13 14 15 16 17 18 19 20 21 22 23 24 25 26 27 28 29 30 31 32 33
000
FTUS41 KRLX 270411 AAC
TAFCKB
TAF AMD
KCKB 270411Z 2704/2724 00000KT 1/4SM FG VV001
     FM271100 00000KT 3/4SM BR BKN001
     FM271300 00000KT 3SM BR BKN006
     FM271400 00000KT P6SM BKN060=

USA.gov is the U.S. government's official web portal to all federal, state and local government web resources and services.